DNKT

Katsina / Yaradura Airport

Katsina, Nigeria
TAF DNKT 222140Z 2300/2406 26010KT CAVOK TEMPO 2312/2317 BKN013 TEMPO 2316/2322 TS FEW020CB TEMPO 2317/2323 5000 TSRA SCT013
Issued Valid From Valid To
Jul-22 @ 21:40 UTC
(16 hours ago)
Jul-23 @ 00:00 UTC
(14 hours ago)
Jul-24 @ 06:00 UTC
(in 16 hours)
Jul-23 @ 00:00 to Jul-24 @ 06:00
TAF DNKT 222140Z 2300/2406 26010KT CAVOK
Wind Visibility Clouds Conditions
260° at 10 knots 10,000+ meters
  • No significant clouds
Temporary Jul-23 @ 12:00 to Jul-23 @ 17:00
TEMPO 2312/2317 BKN013
Clouds
  • Broken at 1,300' AGL
Temporary Jul-23 @ 16:00 to Jul-23 @ 22:00
TEMPO 2316/2322 TS FEW020CB
Clouds Conditions
  • Few at 2,000' AGL
  • Thunderstorm
Temporary Jul-23 @ 17:00 to Jul-23 @ 23:00
TEMPO 2317/2323 5000 TSRA SCT013
Visibility Clouds Conditions
5,005 meters
  • Scattered at 1,300' AGL
  • Thunderstorm
  • Rain
TAF DNKT 222140Z 2300/2406 26010KT CAVOK TEMPO 2312/2317 BKN013 TEMPO 2316/2322 TS FEW020CB TEMPO 2317/2323 5000 TSRA SCT013
Issued Jul-22 @ 21:40 UTC
(16 hours ago)
Valid From Jul-23 @ 00:00 UTC
(14 hours ago)
Valid To Jul-24 @ 06:00 UTC
(in 16 hours)
Jul-23 @ 00:00 - Jul-24 @ 06:00
Wind Visibility
260° at 10 knots 10,000+ meters
Clouds
  • No significant clouds
Conditions
Temporary Jul-23 @ 12:00 - Jul-23 @ 17:00
Clouds
  • Broken at 1,300' AGL
Temporary Jul-23 @ 16:00 - Jul-23 @ 22:00
Clouds
  • Few at 2,000' AGL
Conditions
  • Thunderstorm
Temporary Jul-23 @ 17:00 - Jul-23 @ 23:00
Clouds
  • Scattered at 1,300' AGL
Conditions
  • Thunderstorm
  • Rain